Accueil
METAR-TAF:

METAR-TAF

Aéroports :

Piešťany, Slovaquie

latitude: 48-37-30N, longitude: 017-49-43E, altitude: 163 m

Observation

Le bulletin a été fait il y a 24 minutes, à 06:00 UTC
Vent 3 kt de nord-est
Température -7°C
Humidité 86%
Pression 1034 hPa
Visibilité 10 km ou plus
pas de nuages en-dessous de 1500 mètres et pas de cumulonimbus.

METAR: LZPP 240600Z 05003KT CAVOK M07/M09 Q1034

Heure: 07:24 (06:24 UTC)

Prévision

Le bulletin a été fait il y a 1 heure et 24 minutes, à 05:00 UTC
Prévision valable du 24 à 06 UTC au 24 à 15 UTC
Vent 2 kt de direction variable
Visibilité 10 km ou plus
pas de nuages en-dessous de 1500 mètres et pas de cumulonimbus.
Temporairement
du 24 à 09 UTC au 24 à 15 UTC
Vent 8 kt de sud
Visibilité 10 km ou plus
Nuages épars à une hauteur de 2400 ft

TAF: LZPP 240500Z 2406/2415 VRB02KT CAVOK TEMPO 2409/2415 19008KT 9999 SCT024

Observations et prévisions météorologiques de plus de 4000 aéroports (messages METAR et TAF).

Les stations disponibles sont représentées par des disques jaunes et rouges sur la carte.

Passer la souris dessus pour voir le nom de la station.

Cliquer dessus pour voir les observations et prévisions météorologiques.

Pour changer de carte: cliquez sur les boutons verts avec une croix noire pour zoomer, sur le bouton vert avec un tiret pour effectuer un zoom arrière, ou sur les flèches vertes pour les cartes adjacentes.


METAR-TAF: